• Join FlightAware (Why Join?)
  • Login
  • US Flag 
11:58AM EDT


 

Airport Tracker/Info


-or-


 

Live Flight TrackerFlight Track Log ✈ GJS3649 ✈ 2013-Apr-11 ✈ KORD - KPWM

Flight Track Log - Related Links

Times and Time Zones

All times are in EDT time to prevent confusion due to time zone crossing. See the GJS3649 flight status page for this flight to view local times or setup timezone preferences in your user account.

Time Position Orientation Groundspeed Altitude Reporting Facility
EDT Latitude Longitude Course Direction KTS MPH feet Rate Location/Type
09:06AM 42.0000 -87.8833 66° East 148 170 2,200  Level Chicago TRACON
09:07AM 42.0333 -87.8333 48° Northeast 234 269 3,400 1,860 Climbing Chicago TRACON
09:09AM 42.0789 -87.6108 75° East 294 338 8,100 2,220 Climbing Chicago Center
09:11AM 42.1203 -87.5044 62° Northeast 314 361 10,700 2,520 Climbing Chicago Center
09:12AM 42.2267 -87.1700 66° East  Level FlightAware Approximate
09:12AM 42.1608 -87.3919 64° Northeast 330 380 13,300  Level Chicago Center
09:13AM 42.2053 -87.2706 64° Northeast 355 409 14,300 1,200 Climbing Chicago Center
09:14AM 42.2536 -87.1342 64° Northeast 396 456 15,800 1,500 Climbing Chicago Center
09:15AM 42.2867 -86.9456 77° East 432 497 17,400 1,440 Climbing Chicago Center
09:16AM 42.2919 -86.7772 88° East 447 514 18,800 1,140 Climbing Chicago Center
09:17AM 42.2961 -86.6222 88° East 462 532 19,800 1,200 Climbing Chicago Center
09:18AM 42.3047 -86.4156 87° East 481 554 21,300 1,320 Climbing Chicago Center
09:19AM 42.3103 -86.2300 88° East 494 568 22,600 1,260 Climbing Chicago Center
09:20AM 42.3156 -86.0425 88° East 503 579 23,900 1,140 Climbing Chicago Center
09:21AM 42.3125 -85.8547 91° East 505 581 25,000 1,080 Climbing Chicago Center
09:22AM 42.3103 -85.6653 91° East 507 583 26,200 1,200 Climbing Chicago Center
09:23AM 42.3075 -85.4783 91° East 503 579 27,500 1,380 Climbing Chicago Center
09:24AM 42.3064 -85.3147 90° East 507 583 28,800 1,500 Climbing Cleveland Center
09:25AM 42.3036 -85.1292 91° East 493 567 30,300 1,200 Climbing Cleveland Center
09:26AM 42.3003 -84.9492 91° East 487 560 31,300 900 Climbing Cleveland Center
09:27AM 42.2944 -84.7661 92° East 487 560 32,100 600 Climbing Cleveland Center
09:28AM 42.2867 -84.5775 93° East 487 560 32,500 360 Climbing Cleveland Center
09:29AM 42.2933 -84.3814 87° East 495 570 32,900 540 Climbing Cleveland Center
09:30AM 42.3222 -84.1892 78° East 511 588 33,600 720 Climbing Cleveland Center
09:31AM 42.3511 -83.9942 79° East 521 600 34,400 660 Climbing Cleveland Center
09:32AM 42.3797 -83.7961 79° East 527 606 35,000 300 Climbing Cleveland Center
09:33AM 42.4067 -83.5725 81° East 538 619 35,100 420 Climbing Cleveland Center
09:34AM 42.4139 -83.3731 87° East 541 623 35,900 600 Climbing Cleveland Center
09:35AM 42.4203 -83.1878 87° East 536 617 36,300 480 Climbing Cleveland Center
09:36AM 42.4292 -82.9686 87° East 531 611 36,900 360 Climbing Cleveland Center
09:37AM 42.4353 -82.7664 88° East 531 611 37,100 300 Climbing Cleveland Center
09:38AM 42.4411 -82.5667 88° East 537 618 37,500 -60 Climbing Cleveland Center
09:39AM 42.4464 -82.3642 88° East 532 612 37,000 -300 Descending Cleveland Center
09:40AM 42.4514 -82.1619 88° East 532 612 37,000 -60 Level Cleveland Center
09:41AM 42.4561 -81.9564 88° East 539 620 36,900  Descending Cleveland Center
09:42AM 42.4625 -81.7539 87° East 539 620 37,100  Climbing Cleveland Center
09:43AM 42.4686 -81.5542 88° East 526 605 37,000 -60 Descending Cleveland Center
09:44AM 42.4722 -81.3600 88° East 528 608 37,000  Level Cleveland Center
09:45AM 42.4756 -81.1603 89° East 528 608 37,000  Level Cleveland Center
09:46AM 42.4783 -80.9661 89° East 523 602 37,000  Level Cleveland Center
09:47AM 42.4808 -80.7633 89° East 523 602 37,000  Level Cleveland Center
09:48AM 42.4831 -80.5692 89° East 523 602 37,000  Level Cleveland Center
09:49AM 42.4850 -80.3972 89° East 518 596 37,000  Level Cleveland Center
09:50AM 42.4867 -80.2031 89° East 513 590 37,000  Level Cleveland Center
09:51AM 42.4881 -80.0031 89° East 513 590 37,000  Level Cleveland Center
09:52AM 42.4908 -79.8089 89° East 513 590 37,000  Level Cleveland Center
09:53AM 42.4936 -79.6117 89° East 513 590 37,000  Level Cleveland Center
09:54AM 42.4919 -79.4175 91° East 513 590 37,000  Level Cleveland Center
09:55AM 42.4939 -79.2203 89° East 513 590 37,000  Level Cleveland Center
09:56AM 42.5081 -79.0228 84° East 518 596 37,000  Level Cleveland Center
09:57AM 42.5219 -78.8336 84° East 518 596 37,000  Level Cleveland Center
09:58AM 42.5356 -78.6417 84° East 513 590 37,000  Level Cleveland Center
09:59AM 42.5469 -78.4553 85° East 503 579 37,000  Level Cleveland Center
10:00AM 42.5578 -78.2689 85° East 498 573 37,000  Level Cleveland Center
10:01AM 42.5686 -78.0825 85° East 498 573 37,000  Level Cleveland Center
10:02AM 42.5792 -77.8986 85° East 498 573 37,000  Level Cleveland Center
10:03AM 42.5908 -77.6922 86° East 498 573 37,000  Level Cleveland Center
10:04AM 42.6025 -77.5056 85° East 498 573 37,000  Level Cleveland Center
10:06AM 42.6289 -77.0264 86° East 506 582 37,000  Level Boston Center
10:07AM 42.6364 -76.8378 87° East 494 568 37,000  Level Boston Center
10:08AM 42.6478 -76.6439 85° East 499 574 37,000  Level Boston Center
10:09AM 42.6817 -76.4569 76° East 499 574 37,000  Level Boston Center
10:10AM 42.7153 -76.2694 76° East 504 580 37,000  Level Boston Center
10:11AM 42.7492 -76.0622 77° East 504 580 37,000  Level Boston Center
10:12AM 42.7800 -75.8717 78° East 504 580 37,000  Level Boston Center
10:13AM 42.8128 -75.6811 77° East 504 580 37,000  Level Boston Center
10:14AM 42.8431 -75.4872 78° East 509 586 37,000  Level Boston Center
10:15AM 42.8753 -75.2961 77° East 509 586 37,000  Level Boston Center
10:16AM 42.9069 -75.1019 77° East 515 593 37,000  Level Boston Center
10:17AM 42.9364 -74.9103 78° East 515 593 37,000  Level Boston Center
10:18AM 42.9628 -74.7356 78° East 523 602 37,000  Level Boston Center
10:19AM 42.9917 -74.5406 78° East 523 602 37,000  Level Boston Center
10:20AM 43.0222 -74.3486 78° East 523 602 37,000  Level Boston Center
10:21AM 43.0544 -74.1506 77° East 523 602 37,000  Level Boston Center
10:22AM 43.0803 -73.9553 80° East 523 602 37,000  Level Boston Center
10:23AM 43.1097 -73.7569 78° East 523 602 37,000  Level Boston Center
10:24AM 43.1411 -73.5611 78° East 523 602 37,000  Level Boston Center
10:25AM 43.1656 -73.3853 79° East 523 602 37,000 -240 Level Boston Center
10:26AM 43.1983 -73.1719 78° East 523 602 36,600 -600 Descending Boston Center
10:27AM 43.2286 -72.9731 78° East 523 602 35,900 -1,560 Descending Boston Center
10:28AM 43.2544 -72.7794 80° East 523 602 33,500 -2,640 Descending Boston Center
10:29AM 43.2797 -72.5856 80° East 523 602 30,800 -2,760 Descending Boston Center
10:30AM 43.3050 -72.4003 79° East 512 589 28,100 -2,760 Descending Boston Center
10:31AM 43.3297 -72.2147 80° East 501 577 25,300 -2,580 Descending Boston Center
10:32AM 43.3522 -72.0403 80° East 482 555 22,900 -2,400 Descending Boston Center
10:33AM 43.3744 -71.8717 80° East 463 533 20,500 -2,520 Descending Boston Center
10:34AM 43.4233 -71.7053 68° East 434 499 17,900 -2,460 Descending Boston Center
10:35AM 43.4725 -71.5761 62° Northeast 421 484 15,700 -2,460 Descending Boston Center
10:36AM 43.5150 -71.4122 70° East 409 471 13,100 -2,340 Descending Boston Center
10:37AM 43.4864 -71.2611 105° East 393 452 11,100 -1,080 Descending Boston Center
10:38AM 43.4725 -71.1269 98° East 393 452 11,000 -60 Descending Boston Center
10:39AM 43.5122 -70.9686 71° East 382 440 11,000 -360 Level Boston Center
10:40AM 43.5503 -70.8589 64° Northeast 367 422 10,400 -1,260 Descending Boston Center
10:41AM 43.5942 -70.7317 64° Northeast 344 396 8,500 -1,980 Descending Boston Center
10:42AM 43.6261 -70.6389 65° Northeast 308 354 6,500 -2,040 Descending Boston Center
10:43AM 43.6603 -70.5489 62° Northeast 254 292 4,500 -1,980 Descending Boston Center
10:44AM 43.6547 -70.4744 96° East 213 245 2,700 -1,560 Descending Boston Center
10:45AM 43.6514 -70.4056 94° East 187 215 1,400 -1,080 Descending Boston Center
10:46AM 43.6486 -70.3569 94° East 149 171 600 -660 Descending Boston Center
10:47AM 43.6456 -70.3111 95° East 136 157 100 -300 Descending Boston Center
10:48AM 43.6425 -70.2625 95° East 118 136 100 11,820 Level Boston Center
10:49AM 43.6417 -70.2194 92° East 118 136 24,000 11,820 Climbing Boston Center
10:50AM 43.6408 -70.1764 92° East 118 136 24,000  Level Boston Center
10:51AM 43.6400 -70.1333 92° East 118 136 24,000  Level Boston Center
10:53AM 43.6456 -70.3086 273° West  Level Estimated
11:00AM 43.6456 -70.3086 37° Northeast  Level Estimated
11:01AM 43.6456 -70.3086 37° Northeast  Level Estimated
11:02AM 43.6456 -70.3086 37° Northeast  Level Estimated
11:03AM 43.6456 -70.3086 37° Northeast  Level Estimated